sensor_id;sensor_type;location;lat;lon;timestamp;P1;durP1;ratioP1;P2;durP2;ratioP2
13660;SDS011;6903;49.480;11.102;2024-02-28T00:01:19;20.80;;;11.63;;
13660;SDS011;6903;49.480;11.102;2024-02-28T00:03:44;24.07;;;12.37;;
13660;SDS011;6903;49.480;11.102;2024-02-28T00:06:09;23.43;;;12.43;;
13660;SDS011;6903;49.480;11.102;2024-02-28T00:08:35;25.53;;;12.17;;
13660;SDS011;6903;49.480;11.102;2024-02-28T00:11:00;24.50;;;12.60;;
13660;SDS011;6903;49.480;11.102;2024-02-28T00:13:25;26.33;;;12.27;;
13660;SDS011;6903;49.480;11.102;2024-02-28T00:15:51;23.90;;;12.00;;
13660;SDS011;6903;49.480;11.102;2024-02-28T00:18:16;24.67;;;12.17;;
13660;SDS011;6903;49.480;11.102;2024-02-28T00:20:41;22.40;;;12.50;;
13660;SDS011;6903;49.480;11.102;2024-02-28T00:23:08;22.33;;;12.43;;
13660;SDS011;6903;49.480;11.102;2024-02-28T00:25:34;20.63;;;11.87;;
13660;SDS011;6903;49.480;11.102;2024-02-28T00:28:00;27.03;;;11.43;;
13660;SDS011;6903;49.480;11.102;2024-02-28T00:30:25;22.77;;;11.23;;
13660;SDS011;6903;49.480;11.102;2024-02-28T00:32:50;27.27;;;12.40;;
13660;SDS011;6903;49.480;11.102;2024-02-28T00:35:15;25.43;;;11.90;;
13660;SDS011;6903;49.480;11.102;2024-02-28T00:37:40;23.17;;;11.97;;
13660;SDS011;6903;49.480;11.102;2024-02-28T00:40:06;24.97;;;11.63;;
13660;SDS011;6903;49.480;11.102;2024-02-28T00:42:32;24.87;;;12.07;;
13660;SDS011;6903;49.480;11.102;2024-02-28T00:44:58;23.40;;;11.90;;
13660;SDS011;6903;49.480;11.102;2024-02-28T00:47:23;24.73;;;11.40;;
13660;SDS011;6903;49.480;11.102;2024-02-28T00:49:48;23.43;;;11.00;;
13660;SDS011;6903;49.480;11.102;2024-02-28T00:52:13;20.83;;;11.70;;
13660;SDS011;6903;49.480;11.102;2024-02-28T00:54:39;23.73;;;11.57;;
13660;SDS011;6903;49.480;11.102;2024-02-28T00:57:04;23.90;;;12.00;;
13660;SDS011;6903;49.480;11.102;2024-02-28T00:59:29;24.23;;;11.70;;
13660;SDS011;6903;49.480;11.102;2024-02-28T01:01:54;22.53;;;11.47;;
13660;SDS011;6903;49.480;11.102;2024-02-28T01:04:20;24.67;;;12.23;;
13660;SDS011;6903;49.480;11.102;2024-02-28T01:06:45;21.83;;;11.30;;
13660;SDS011;6903;49.480;11.102;2024-02-28T01:09:10;23.27;;;11.37;;
13660;SDS011;6903;49.480;11.102;2024-02-28T01:11:35;25.93;;;11.53;;
13660;SDS011;6903;49.480;11.102;2024-02-28T01:14:00;22.13;;;11.03;;
13660;SDS011;6903;49.480;11.102;2024-02-28T01:16:25;24.43;;;11.40;;
13660;SDS011;6903;49.480;11.102;2024-02-28T01:18:51;24.23;;;12.13;;
13660;SDS011;6903;49.480;11.102;2024-02-28T01:21:16;21.87;;;11.83;;
13660;SDS011;6903;49.480;11.102;2024-02-28T01:23:41;20.93;;;11.03;;
13660;SDS011;6903;49.480;11.102;2024-02-28T01:26:06;23.57;;;11.20;;
13660;SDS011;6903;49.480;11.102;2024-02-28T01:28:32;23.43;;;11.70;;
13660;SDS011;6903;49.480;11.102;2024-02-28T01:30:57;20.93;;;10.67;;
13660;SDS011;6903;49.480;11.102;2024-02-28T01:33:23;21.53;;;10.90;;
13660;SDS011;6903;49.480;11.102;2024-02-28T01:35:48;20.30;;;10.53;;
13660;SDS011;6903;49.480;11.102;2024-02-28T01:38:13;23.13;;;11.23;;
13660;SDS011;6903;49.480;11.102;2024-02-28T01:40:38;24.53;;;10.90;;
13660;SDS011;6903;49.480;11.102;2024-02-28T01:43:08;21.63;;;10.90;;
13660;SDS011;6903;49.480;11.102;2024-02-28T01:45:33;23.33;;;10.90;;
13660;SDS011;6903;49.480;11.102;2024-02-28T01:47:59;21.70;;;10.80;;
13660;SDS011;6903;49.480;11.102;2024-02-28T01:50:24;20.60;;;11.60;;
13660;SDS011;6903;49.480;11.102;2024-02-28T01:52:49;18.87;;;9.20;;
13660;SDS011;6903;49.480;11.102;2024-02-28T01:55:15;23.70;;;10.60;;
13660;SDS011;6903;49.480;11.102;2024-02-28T01:57:40;20.23;;;10.97;;
13660;SDS011;6903;49.480;11.102;2024-02-28T02:00:06;21.70;;;11.37;;
13660;SDS011;6903;49.480;11.102;2024-02-28T02:02:33;22.20;;;10.97;;
13660;SDS011;6903;49.480;11.102;2024-02-28T02:04:58;20.80;;;11.50;;
13660;SDS011;6903;49.480;11.102;2024-02-28T02:07:24;19.40;;;10.47;;
13660;SDS011;6903;49.480;11.102;2024-02-28T02:09:49;23.90;;;10.73;;
13660;SDS011;6903;49.480;11.102;2024-02-28T02:12:15;24.13;;;10.10;;
13660;SDS011;6903;49.480;11.102;2024-02-28T02:14:41;24.03;;;11.23;;
13660;SDS011;6903;49.480;11.102;2024-02-28T02:17:06;21.13;;;10.70;;
13660;SDS011;6903;49.480;11.102;2024-02-28T02:19:31;22.23;;;10.83;;
13660;SDS011;6903;49.480;11.102;2024-02-28T02:21:57;21.63;;;10.97;;
13660;SDS011;6903;49.480;11.102;2024-02-28T02:24:23;22.80;;;11.50;;
13660;SDS011;6903;49.480;11.102;2024-02-28T02:26:48;19.30;;;10.70;;
13660;SDS011;6903;49.480;11.102;2024-02-28T02:29:16;22.13;;;10.37;;
13660;SDS011;6903;49.480;11.102;2024-02-28T02:31:41;22.77;;;10.90;;
13660;SDS011;6903;49.480;11.102;2024-02-28T02:34:07;22.00;;;11.73;;
13660;SDS011;6903;49.480;11.102;2024-02-28T02:36:32;19.93;;;10.83;;
13660;SDS011;6903;49.480;11.102;2024-02-28T02:38:57;22.77;;;10.57;;
13660;SDS011;6903;49.480;11.102;2024-02-28T02:41:23;18.87;;;9.87;;
13660;SDS011;6903;49.480;11.102;2024-02-28T02:43:48;23.13;;;10.73;;
13660;SDS011;6903;49.480;11.102;2024-02-28T02:46:13;19.13;;;9.93;;
13660;SDS011;6903;49.480;11.102;2024-02-28T02:48:38;20.93;;;11.10;;
13660;SDS011;6903;49.480;11.102;2024-02-28T02:51:03;21.87;;;10.70;;
13660;SDS011;6903;49.480;11.102;2024-02-28T02:53:29;26.17;;;11.87;;
13660;SDS011;6903;49.480;11.102;2024-02-28T02:55:54;21.37;;;10.67;;
13660;SDS011;6903;49.480;11.102;2024-02-28T02:58:19;22.17;;;10.37;;
13660;SDS011;6903;49.480;11.102;2024-02-28T03:00:44;21.23;;;10.77;;
13660;SDS011;6903;49.480;11.102;2024-02-28T03:03:09;24.47;;;10.77;;
13660;SDS011;6903;49.480;11.102;2024-02-28T03:05:34;22.23;;;11.07;;
13660;SDS011;6903;49.480;11.102;2024-02-28T03:08:00;19.63;;;10.40;;
13660;SDS011;6903;49.480;11.102;2024-02-28T03:10:25;22.67;;;10.50;;
13660;SDS011;6903;49.480;11.102;2024-02-28T03:12:50;21.80;;;10.97;;
13660;SDS011;6903;49.480;11.102;2024-02-28T03:15:15;19.67;;;10.73;;
13660;SDS011;6903;49.480;11.102;2024-02-28T03:17:41;23.97;;;11.57;;
13660;SDS011;6903;49.480;11.102;2024-02-28T03:20:07;23.33;;;11.07;;
13660;SDS011;6903;49.480;11.102;2024-02-28T03:22:32;19.97;;;10.20;;
13660;SDS011;6903;49.480;11.102;2024-02-28T03:24:58;25.30;;;11.80;;
13660;SDS011;6903;49.480;11.102;2024-02-28T03:27:23;20.27;;;10.20;;
13660;SDS011;6903;49.480;11.102;2024-02-28T03:29:49;20.33;;;10.90;;
13660;SDS011;6903;49.480;11.102;2024-02-28T03:32:14;23.00;;;10.63;;
13660;SDS011;6903;49.480;11.102;2024-02-28T03:34:39;23.17;;;12.03;;
13660;SDS011;6903;49.480;11.102;2024-02-28T03:37:04;21.53;;;10.07;;
13660;SDS011;6903;49.480;11.102;2024-02-28T03:39:30;22.00;;;11.17;;
13660;SDS011;6903;49.480;11.102;2024-02-28T03:41:55;19.97;;;10.87;;
13660;SDS011;6903;49.480;11.102;2024-02-28T03:44:21;18.47;;;9.33;;
13660;SDS011;6903;49.480;11.102;2024-02-28T03:46:46;22.23;;;10.63;;
13660;SDS011;6903;49.480;11.102;2024-02-28T03:49:11;21.30;;;10.87;;
13660;SDS011;6903;49.480;11.102;2024-02-28T03:51:40;21.37;;;10.27;;
13660;SDS011;6903;49.480;11.102;2024-02-28T03:54:06;20.00;;;10.10;;
13660;SDS011;6903;49.480;11.102;2024-02-28T03:56:31;20.43;;;10.80;;
13660;SDS011;6903;49.480;11.102;2024-02-28T03:58:56;15.90;;;8.87;;
13660;SDS011;6903;49.480;11.102;2024-02-28T04:01:21;19.03;;;10.13;;
13660;SDS011;6903;49.480;11.102;2024-02-28T04:03:47;19.77;;;10.07;;
13660;SDS011;6903;49.480;11.102;2024-02-28T04:06:12;19.37;;;9.87;;
13660;SDS011;6903;49.480;11.102;2024-02-28T04:08:37;17.20;;;10.00;;
13660;SDS011;6903;49.480;11.102;2024-02-28T04:11:02;17.77;;;9.43;;
13660;SDS011;6903;49.480;11.102;2024-02-28T04:13:28;17.20;;;9.67;;
13660;SDS011;6903;49.480;11.102;2024-02-28T04:15:53;16.77;;;9.20;;
13660;SDS011;6903;49.480;11.102;2024-02-28T04:18:18;19.77;;;9.93;;
13660;SDS011;6903;49.480;11.102;2024-02-28T04:20:44;16.97;;;9.33;;
13660;SDS011;6903;49.480;11.102;2024-02-28T04:23:09;20.10;;;9.97;;
13660;SDS011;6903;49.480;11.102;2024-02-28T04:25:34;18.13;;;10.10;;
13660;SDS011;6903;49.480;11.102;2024-02-28T04:28:00;17.20;;;8.70;;
13660;SDS011;6903;49.480;11.102;2024-02-28T04:30:26;17.87;;;9.60;;
13660;SDS011;6903;49.480;11.102;2024-02-28T04:32:51;19.37;;;9.60;;
13660;SDS011;6903;49.480;11.102;2024-02-28T04:35:16;15.33;;;8.43;;
13660;SDS011;6903;49.480;11.102;2024-02-28T04:37:43;16.10;;;8.00;;
13660;SDS011;6903;49.480;11.102;2024-02-28T04:40:09;21.23;;;8.93;;
13660;SDS011;6903;49.480;11.102;2024-02-28T04:42:34;15.93;;;8.37;;
13660;SDS011;6903;49.480;11.102;2024-02-28T04:44:59;17.93;;;9.57;;
13660;SDS011;6903;49.480;11.102;2024-02-28T04:47:24;17.10;;;8.90;;
13660;SDS011;6903;49.480;11.102;2024-02-28T04:49:50;15.20;;;8.67;;
13660;SDS011;6903;49.480;11.102;2024-02-28T04:52:15;19.13;;;9.17;;
13660;SDS011;6903;49.480;11.102;2024-02-28T04:54:40;18.87;;;8.93;;
13660;SDS011;6903;49.480;11.102;2024-02-28T04:57:05;19.40;;;9.00;;
13660;SDS011;6903;49.480;11.102;2024-02-28T04:59:31;15.70;;;8.37;;
13660;SDS011;6903;49.480;11.102;2024-02-28T05:01:56;19.50;;;9.10;;
13660;SDS011;6903;49.480;11.102;2024-02-28T05:04:22;15.93;;;7.70;;
13660;SDS011;6903;49.480;11.102;2024-02-28T05:06:48;17.97;;;8.93;;
13660;SDS011;6903;49.480;11.102;2024-02-28T05:09:13;15.73;;;8.23;;
13660;SDS011;6903;49.480;11.102;2024-02-28T05:11:38;17.30;;;8.60;;
13660;SDS011;6903;49.480;11.102;2024-02-28T05:14:04;16.90;;;8.03;;
13660;SDS011;6903;49.480;11.102;2024-02-28T05:16:29;15.37;;;8.20;;
13660;SDS011;6903;49.480;11.102;2024-02-28T05:18:54;15.77;;;8.33;;
13660;SDS011;6903;49.480;11.102;2024-02-28T05:21:19;13.97;;;8.27;;
13660;SDS011;6903;49.480;11.102;2024-02-28T05:23:44;17.83;;;9.10;;
13660;SDS011;6903;49.480;11.102;2024-02-28T05:26:10;16.57;;;8.57;;
13660;SDS011;6903;49.480;11.102;2024-02-28T05:28:35;17.60;;;8.00;;
13660;SDS011;6903;49.480;11.102;2024-02-28T05:31:20;15.00;;;8.30;;
13660;SDS011;6903;49.480;11.102;2024-02-28T05:33:46;18.17;;;9.00;;
13660;SDS011;6903;49.480;11.102;2024-02-28T05:36:11;14.53;;;7.83;;
13660;SDS011;6903;49.480;11.102;2024-02-28T05:38:36;16.70;;;8.50;;
13660;SDS011;6903;49.480;11.102;2024-02-28T05:41:01;15.73;;;7.80;;
13660;SDS011;6903;49.480;11.102;2024-02-28T05:43:26;13.57;;;7.43;;
13660;SDS011;6903;49.480;11.102;2024-02-28T05:45:52;14.60;;;8.47;;
13660;SDS011;6903;49.480;11.102;2024-02-28T05:48:17;15.07;;;7.60;;
13660;SDS011;6903;49.480;11.102;2024-02-28T05:50:43;15.00;;;7.87;;
13660;SDS011;6903;49.480;11.102;2024-02-28T05:53:08;16.10;;;7.93;;
13660;SDS011;6903;49.480;11.102;2024-02-28T05:55:34;13.93;;;7.80;;
13660;SDS011;6903;49.480;11.102;2024-02-28T05:57:59;13.97;;;7.97;;
13660;SDS011;6903;49.480;11.102;2024-02-28T06:00:24;16.37;;;7.47;;
13660;SDS011;6903;49.480;11.102;2024-02-28T06:02:49;13.23;;;6.77;;
13660;SDS011;6903;49.480;11.102;2024-02-28T06:05:14;16.87;;;7.87;;
13660;SDS011;6903;49.480;11.102;2024-02-28T06:07:39;13.70;;;7.83;;
13660;SDS011;6903;49.480;11.102;2024-02-28T06:10:05;14.00;;;7.43;;
13660;SDS011;6903;49.480;11.102;2024-02-28T06:12:30;14.27;;;7.97;;
13660;SDS011;6903;49.480;11.102;2024-02-28T06:14:56;14.27;;;7.40;;
13660;SDS011;6903;49.480;11.102;2024-02-28T06:17:21;14.00;;;7.20;;
13660;SDS011;6903;49.480;11.102;2024-02-28T06:19:47;12.33;;;7.17;;
13660;SDS011;6903;49.480;11.102;2024-02-28T06:22:12;14.57;;;7.53;;
13660;SDS011;6903;49.480;11.102;2024-02-28T06:24:38;12.43;;;7.30;;
13660;SDS011;6903;49.480;11.102;2024-02-28T06:27:04;11.63;;;6.60;;
13660;SDS011;6903;49.480;11.102;2024-02-28T06:29:30;14.57;;;6.73;;
13660;SDS011;6903;49.480;11.102;2024-02-28T06:31:55;12.53;;;6.70;;
13660;SDS011;6903;49.480;11.102;2024-02-28T06:34:20;11.90;;;6.80;;
13660;SDS011;6903;49.480;11.102;2024-02-28T06:36:47;13.53;;;7.23;;
13660;SDS011;6903;49.480;11.102;2024-02-28T06:39:12;11.37;;;6.73;;
13660;SDS011;6903;49.480;11.102;2024-02-28T06:41:37;14.37;;;7.37;;
13660;SDS011;6903;49.480;11.102;2024-02-28T06:44:03;13.47;;;7.10;;
13660;SDS011;6903;49.480;11.102;2024-02-28T06:46:28;14.93;;;7.30;;
13660;SDS011;6903;49.480;11.102;2024-02-28T06:48:53;13.50;;;7.50;;
13660;SDS011;6903;49.480;11.102;2024-02-28T06:51:18;12.80;;;7.07;;
13660;SDS011;6903;49.480;11.102;2024-02-28T06:53:44;13.13;;;7.07;;
13660;SDS011;6903;49.480;11.102;2024-02-28T06:56:09;14.77;;;7.80;;
13660;SDS011;6903;49.480;11.102;2024-02-28T06:58:34;12.80;;;7.90;;
13660;SDS011;6903;49.480;11.102;2024-02-28T07:01:00;16.10;;;7.57;;
13660;SDS011;6903;49.480;11.102;2024-02-28T07:03:25;14.87;;;7.33;;
13660;SDS011;6903;49.480;11.102;2024-02-28T07:05:51;13.93;;;7.70;;
13660;SDS011;6903;49.480;11.102;2024-02-28T07:08:17;11.63;;;7.23;;
13660;SDS011;6903;49.480;11.102;2024-02-28T07:10:42;13.50;;;6.93;;
13660;SDS011;6903;49.480;11.102;2024-02-28T07:13:08;17.43;;;7.27;;
13660;SDS011;6903;49.480;11.102;2024-02-28T07:15:33;17.07;;;7.73;;
13660;SDS011;6903;49.480;11.102;2024-02-28T07:17:59;10.80;;;6.70;;
13660;SDS011;6903;49.480;11.102;2024-02-28T07:20:24;14.63;;;7.67;;
13660;SDS011;6903;49.480;11.102;2024-02-28T07:22:49;13.83;;;7.10;;
13660;SDS011;6903;49.480;11.102;2024-02-28T07:25:14;14.37;;;7.30;;
13660;SDS011;6903;49.480;11.102;2024-02-28T07:27:40;15.77;;;7.60;;
13660;SDS011;6903;49.480;11.102;2024-02-28T07:30:05;14.27;;;7.10;;
13660;SDS011;6903;49.480;11.102;2024-02-28T07:32:31;12.77;;;7.03;;
13660;SDS011;6903;49.480;11.102;2024-02-28T07:35:00;11.93;;;7.07;;
13660;SDS011;6903;49.480;11.102;2024-02-28T07:37:25;9.90;;;6.40;;
13660;SDS011;6903;49.480;11.102;2024-02-28T07:39:50;15.80;;;7.83;;
13660;SDS011;6903;49.480;11.102;2024-02-28T07:42:15;13.40;;;7.63;;
13660;SDS011;6903;49.480;11.102;2024-02-28T07:44:40;9.97;;;7.13;;
13660;SDS011;6903;49.480;11.102;2024-02-28T07:47:06;16.13;;;7.60;;
13660;SDS011;6903;49.480;11.102;2024-02-28T07:49:31;14.20;;;7.27;;
13660;SDS011;6903;49.480;11.102;2024-02-28T07:51:56;14.37;;;8.23;;
13660;SDS011;6903;49.480;11.102;2024-02-28T07:54:21;14.10;;;6.90;;
13660;SDS011;6903;49.480;11.102;2024-02-28T07:56:47;13.77;;;8.03;;
13660;SDS011;6903;49.480;11.102;2024-02-28T07:59:12;14.30;;;7.80;;
13660;SDS011;6903;49.480;11.102;2024-02-28T08:01:37;14.00;;;8.00;;
13660;SDS011;6903;49.480;11.102;2024-02-28T08:04:04;13.77;;;7.80;;
13660;SDS011;6903;49.480;11.102;2024-02-28T08:06:29;15.77;;;8.10;;
13660;SDS011;6903;49.480;11.102;2024-02-28T08:08:56;14.43;;;7.50;;
13660;SDS011;6903;49.480;11.102;2024-02-28T08:11:21;16.20;;;8.00;;
13660;SDS011;6903;49.480;11.102;2024-02-28T08:13:46;13.67;;;7.83;;
13660;SDS011;6903;49.480;11.102;2024-02-28T08:16:12;14.40;;;7.67;;
13660;SDS011;6903;49.480;11.102;2024-02-28T08:18:37;12.77;;;7.77;;
13660;SDS011;6903;49.480;11.102;2024-02-28T08:21:02;15.43;;;8.67;;
13660;SDS011;6903;49.480;11.102;2024-02-28T08:23:28;16.33;;;8.80;;
13660;SDS011;6903;49.480;11.102;2024-02-28T08:25:54;13.57;;;8.07;;
13660;SDS011;6903;49.480;11.102;2024-02-28T08:28:19;13.50;;;7.83;;
13660;SDS011;6903;49.480;11.102;2024-02-28T08:30:44;12.97;;;7.80;;
13660;SDS011;6903;49.480;11.102;2024-02-28T08:33:09;12.03;;;7.27;;
13660;SDS011;6903;49.480;11.102;2024-02-28T08:35:35;15.00;;;8.00;;
13660;SDS011;6903;49.480;11.102;2024-02-28T08:38:00;11.83;;;7.10;;
13660;SDS011;6903;49.480;11.102;2024-02-28T08:40:27;13.97;;;7.63;;
13660;SDS011;6903;49.480;11.102;2024-02-28T08:42:52;11.67;;;6.73;;
13660;SDS011;6903;49.480;11.102;2024-02-28T08:45:19;14.43;;;7.57;;
13660;SDS011;6903;49.480;11.102;2024-02-28T08:47:44;13.67;;;7.53;;
13660;SDS011;6903;49.480;11.102;2024-02-28T08:50:10;14.67;;;7.50;;
13660;SDS011;6903;49.480;11.102;2024-02-28T08:52:35;13.00;;;7.23;;
13660;SDS011;6903;49.480;11.102;2024-02-28T08:55:00;12.00;;;7.37;;
13660;SDS011;6903;49.480;11.102;2024-02-28T08:57:25;12.20;;;6.23;;
13660;SDS011;6903;49.480;11.102;2024-02-28T08:59:51;10.97;;;6.43;;
13660;SDS011;6903;49.480;11.102;2024-02-28T09:02:16;13.93;;;6.90;;
13660;SDS011;6903;49.480;11.102;2024-02-28T09:04:41;10.83;;;6.33;;
13660;SDS011;6903;49.480;11.102;2024-02-28T09:07:07;10.63;;;6.40;;
13660;SDS011;6903;49.480;11.102;2024-02-28T09:09:32;9.40;;;5.77;;
13660;SDS011;6903;49.480;11.102;2024-02-28T09:12:02;11.60;;;6.83;;
13660;SDS011;6903;49.480;11.102;2024-02-28T09:14:28;11.60;;;7.00;;
13660;SDS011;6903;49.480;11.102;2024-02-28T09:16:53;11.83;;;6.87;;
13660;SDS011;6903;49.480;11.102;2024-02-28T09:19:21;10.03;;;6.47;;
13660;SDS011;6903;49.480;11.102;2024-02-28T09:21:46;8.97;;;6.10;;
13660;SDS011;6903;49.480;11.102;2024-02-28T09:24:12;10.87;;;6.77;;
13660;SDS011;6903;49.480;11.102;2024-02-28T09:26:41;12.77;;;6.93;;
13660;SDS011;6903;49.480;11.102;2024-02-28T09:29:06;11.73;;;6.80;;
13660;SDS011;6903;49.480;11.102;2024-02-28T09:31:31;12.00;;;6.80;;
13660;SDS011;6903;49.480;11.102;2024-02-28T09:33:56;9.23;;;6.83;;
13660;SDS011;6903;49.480;11.102;2024-02-28T09:36:23;12.10;;;7.97;;
13660;SDS011;6903;49.480;11.102;2024-02-28T09:38:48;9.97;;;6.73;;
13660;SDS011;6903;49.480;11.102;2024-02-28T09:41:16;11.30;;;6.47;;
13660;SDS011;6903;49.480;11.102;2024-02-28T09:43:42;8.80;;;6.00;;
13660;SDS011;6903;49.480;11.102;2024-02-28T09:46:08;11.23;;;6.70;;
13660;SDS011;6903;49.480;11.102;2024-02-28T09:48:38;11.80;;;7.23;;
13660;SDS011;6903;49.480;11.102;2024-02-28T09:51:03;10.87;;;6.57;;
13660;SDS011;6903;49.480;11.102;2024-02-28T09:53:28;11.23;;;6.57;;
13660;SDS011;6903;49.480;11.102;2024-02-28T09:55:54;11.23;;;6.73;;
13660;SDS011;6903;49.480;11.102;2024-02-28T09:58:19;12.23;;;6.83;;
13660;SDS011;6903;49.480;11.102;2024-02-28T10:00:46;12.73;;;7.03;;
13660;SDS011;6903;49.480;11.102;2024-02-28T10:03:17;12.17;;;7.00;;
13660;SDS011;6903;49.480;11.102;2024-02-28T10:05:43;9.47;;;6.33;;
13660;SDS011;6903;49.480;11.102;2024-02-28T10:08:09;12.53;;;6.63;;
13660;SDS011;6903;49.480;11.102;2024-02-28T10:10:36;11.33;;;6.50;;
13660;SDS011;6903;49.480;11.102;2024-02-28T10:13:02;10.97;;;6.70;;
13660;SDS011;6903;49.480;11.102;2024-02-28T10:15:27;10.90;;;6.53;;
13660;SDS011;6903;49.480;11.102;2024-02-28T10:17:52;11.17;;;6.97;;
13660;SDS011;6903;49.480;11.102;2024-02-28T10:20:18;9.17;;;6.13;;
13660;SDS011;6903;49.480;11.102;2024-02-28T10:22:43;10.47;;;7.33;;
13660;SDS011;6903;49.480;11.102;2024-02-28T10:25:08;10.63;;;6.70;;
13660;SDS011;6903;49.480;11.102;2024-02-28T10:27:33;11.57;;;6.83;;
13660;SDS011;6903;49.480;11.102;2024-02-28T10:29:59;15.67;;;7.37;;
13660;SDS011;6903;49.480;11.102;2024-02-28T10:32:24;12.43;;;7.10;;
13660;SDS011;6903;49.480;11.102;2024-02-28T10:34:49;12.43;;;7.27;;
13660;SDS011;6903;49.480;11.102;2024-02-28T10:37:15;11.63;;;7.40;;
13660;SDS011;6903;49.480;11.102;2024-02-28T10:39:41;11.57;;;7.00;;
13660;SDS011;6903;49.480;11.102;2024-02-28T10:42:06;11.90;;;6.80;;
13660;SDS011;6903;49.480;11.102;2024-02-28T10:44:33;11.43;;;6.60;;
13660;SDS011;6903;49.480;11.102;2024-02-28T10:47:00;10.07;;;6.40;;
13660;SDS011;6903;49.480;11.102;2024-02-28T10:49:26;9.07;;;5.67;;
13660;SDS011;6903;49.480;11.102;2024-02-28T10:51:51;8.77;;;6.03;;
13660;SDS011;6903;49.480;11.102;2024-02-28T10:54:17;10.90;;;6.00;;
13660;SDS011;6903;49.480;11.102;2024-02-28T10:56:45;9.73;;;6.33;;
13660;SDS011;6903;49.480;11.102;2024-02-28T10:59:11;8.30;;;5.53;;
13660;SDS011;6903;49.480;11.102;2024-02-28T11:01:38;11.33;;;6.43;;
13660;SDS011;6903;49.480;11.102;2024-02-28T11:04:04;8.20;;;5.67;;
13660;SDS011;6903;49.480;11.102;2024-02-28T11:06:30;8.97;;;5.97;;
13660;SDS011;6903;49.480;11.102;2024-02-28T11:08:55;9.17;;;5.60;;
13660;SDS011;6903;49.480;11.102;2024-02-28T11:11:23;9.37;;;6.20;;
13660;SDS011;6903;49.480;11.102;2024-02-28T11:13:55;10.10;;;6.43;;
13660;SDS011;6903;49.480;11.102;2024-02-28T11:16:30;9.93;;;6.57;;
13660;SDS011;6903;49.480;11.102;2024-02-28T11:18:56;8.43;;;5.50;;
13660;SDS011;6903;49.480;11.102;2024-02-28T11:21:24;9.47;;;5.93;;
13660;SDS011;6903;49.480;11.102;2024-02-28T11:23:50;9.00;;;5.53;;
13660;SDS011;6903;49.480;11.102;2024-02-28T11:26:16;9.13;;;6.10;;
13660;SDS011;6903;49.480;11.102;2024-02-28T11:28:41;10.60;;;6.40;;
13660;SDS011;6903;49.480;11.102;2024-02-28T11:31:06;11.17;;;6.73;;
13660;SDS011;6903;49.480;11.102;2024-02-28T11:33:31;10.93;;;6.60;;
13660;SDS011;6903;49.480;11.102;2024-02-28T11:35:58;10.80;;;6.47;;
13660;SDS011;6903;49.480;11.102;2024-02-28T11:38:24;12.27;;;7.13;;
13660;SDS011;6903;49.480;11.102;2024-02-28T11:40:49;11.27;;;6.83;;
13660;SDS011;6903;49.480;11.102;2024-02-28T11:43:15;11.60;;;6.67;;
13660;SDS011;6903;49.480;11.102;2024-02-28T11:45:40;12.07;;;7.30;;
13660;SDS011;6903;49.480;11.102;2024-02-28T11:48:06;9.20;;;5.83;;
13660;SDS011;6903;49.480;11.102;2024-02-28T11:50:32;9.37;;;6.07;;
13660;SDS011;6903;49.480;11.102;2024-02-28T11:52:57;9.17;;;6.10;;
13660;SDS011;6903;49.480;11.102;2024-02-28T11:55:24;9.00;;;5.10;;
13660;SDS011;6903;49.480;11.102;2024-02-28T11:57:49;7.67;;;4.90;;
13660;SDS011;6903;49.480;11.102;2024-02-28T12:00:15;10.57;;;5.67;;
13660;SDS011;6903;49.480;11.102;2024-02-28T12:02:40;8.87;;;5.60;;
13660;SDS011;6903;49.480;11.102;2024-02-28T12:05:06;9.97;;;6.37;;
13660;SDS011;6903;49.480;11.102;2024-02-28T12:07:31;10.27;;;7.07;;
13660;SDS011;6903;49.480;11.102;2024-02-28T12:09:57;10.77;;;6.60;;
13660;SDS011;6903;49.480;11.102;2024-02-28T12:12:22;9.40;;;6.00;;
13660;SDS011;6903;49.480;11.102;2024-02-28T12:14:48;11.20;;;7.33;;
13660;SDS011;6903;49.480;11.102;2024-02-28T12:17:16;7.33;;;5.10;;
13660;SDS011;6903;49.480;11.102;2024-02-28T12:19:41;8.20;;;5.93;;
13660;SDS011;6903;49.480;11.102;2024-02-28T12:22:07;9.03;;;5.97;;
13660;SDS011;6903;49.480;11.102;2024-02-28T12:24:33;9.87;;;6.23;;
13660;SDS011;6903;49.480;11.102;2024-02-28T12:26:58;9.67;;;6.20;;
13660;SDS011;6903;49.480;11.102;2024-02-28T12:29:23;8.77;;;6.30;;
13660;SDS011;6903;49.480;11.102;2024-02-28T12:31:48;9.00;;;5.37;;
13660;SDS011;6903;49.480;11.102;2024-02-28T12:34:13;11.57;;;6.37;;
13660;SDS011;6903;49.480;11.102;2024-02-28T12:36:40;9.23;;;5.67;;
13660;SDS011;6903;49.480;11.102;2024-02-28T12:39:05;9.90;;;5.87;;
13660;SDS011;6903;49.480;11.102;2024-02-28T12:41:31;10.10;;;6.47;;
13660;SDS011;6903;49.480;11.102;2024-02-28T12:43:56;9.40;;;6.20;;
13660;SDS011;6903;49.480;11.102;2024-02-28T12:46:21;10.97;;;6.73;;
13660;SDS011;6903;49.480;11.102;2024-02-28T12:48:47;9.60;;;5.97;;
13660;SDS011;6903;49.480;11.102;2024-02-28T12:53:56;7.77;;;5.67;;
13660;SDS011;6903;49.480;11.102;2024-02-28T12:56:21;8.03;;;5.63;;
13660;SDS011;6903;49.480;11.102;2024-02-28T12:58:47;9.00;;;5.47;;
13660;SDS011;6903;49.480;11.102;2024-02-28T13:01:12;9.00;;;5.37;;
13660;SDS011;6903;49.480;11.102;2024-02-28T13:03:37;7.83;;;5.50;;
13660;SDS011;6903;49.480;11.102;2024-02-28T13:06:02;9.37;;;5.30;;
13660;SDS011;6903;49.480;11.102;2024-02-28T13:08:27;7.70;;;5.37;;
13660;SDS011;6903;49.480;11.102;2024-02-28T13:10:53;9.13;;;5.83;;
13660;SDS011;6903;49.480;11.102;2024-02-28T13:13:18;7.87;;;5.40;;
13660;SDS011;6903;49.480;11.102;2024-02-28T13:15:43;8.60;;;5.73;;
13660;SDS011;6903;49.480;11.102;2024-02-28T13:18:10;10.30;;;5.83;;
13660;SDS011;6903;49.480;11.102;2024-02-28T13:20:36;8.77;;;5.77;;
13660;SDS011;6903;49.480;11.102;2024-02-28T13:23:03;9.47;;;5.90;;
13660;SDS011;6903;49.480;11.102;2024-02-28T13:25:28;10.97;;;6.10;;
13660;SDS011;6903;49.480;11.102;2024-02-28T13:27:53;9.07;;;5.37;;
13660;SDS011;6903;49.480;11.102;2024-02-28T13:30:18;7.57;;;5.03;;
13660;SDS011;6903;49.480;11.102;2024-02-28T13:32:44;7.77;;;5.23;;
13660;SDS011;6903;49.480;11.102;2024-02-28T13:35:09;8.37;;;5.00;;
13660;SDS011;6903;49.480;11.102;2024-02-28T13:37:35;9.17;;;5.60;;
13660;SDS011;6903;49.480;11.102;2024-02-28T13:40:01;7.07;;;4.80;;
13660;SDS011;6903;49.480;11.102;2024-02-28T13:42:29;9.87;;;5.77;;
13660;SDS011;6903;49.480;11.102;2024-02-28T13:44:54;8.77;;;5.03;;
13660;SDS011;6903;49.480;11.102;2024-02-28T13:47:20;8.80;;;5.13;;
13660;SDS011;6903;49.480;11.102;2024-02-28T13:49:45;7.17;;;4.83;;
13660;SDS011;6903;49.480;11.102;2024-02-28T13:52:11;7.70;;;5.73;;
13660;SDS011;6903;49.480;11.102;2024-02-28T13:54:36;8.20;;;5.50;;
13660;SDS011;6903;49.480;11.102;2024-02-28T13:57:02;8.17;;;5.57;;
13660;SDS011;6903;49.480;11.102;2024-02-28T13:59:28;8.10;;;5.10;;
13660;SDS011;6903;49.480;11.102;2024-02-28T14:01:54;7.63;;;5.23;;
13660;SDS011;6903;49.480;11.102;2024-02-28T14:04:19;10.93;;;5.30;;
13660;SDS011;6903;49.480;11.102;2024-02-28T14:06:44;7.70;;;4.87;;
13660;SDS011;6903;49.480;11.102;2024-02-28T14:09:09;7.53;;;5.03;;
13660;SDS011;6903;49.480;11.102;2024-02-28T14:11:35;8.23;;;4.97;;
13660;SDS011;6903;49.480;11.102;2024-02-28T14:14:00;7.07;;;4.73;;
13660;SDS011;6903;49.480;11.102;2024-02-28T14:16:25;7.43;;;5.27;;
13660;SDS011;6903;49.480;11.102;2024-02-28T14:18:51;7.73;;;5.13;;
13660;SDS011;6903;49.480;11.102;2024-02-28T14:21:16;7.67;;;4.60;;
13660;SDS011;6903;49.480;11.102;2024-02-28T14:23:41;7.97;;;4.87;;
13660;SDS011;6903;49.480;11.102;2024-02-28T14:26:07;6.97;;;4.73;;